createdAt,value
2023-02-11T00:01:26.377Z,40.05
2023-02-11T00:03:53.522Z,44.45
2023-02-11T00:06:20.453Z,43.17
2023-02-11T00:08:49.684Z,43.47
2023-02-11T00:11:18.634Z,48.28
2023-02-11T00:13:46.607Z,51.28
2023-02-11T00:16:19.687Z,48.55
2023-02-11T00:18:53.150Z,45.35
2023-02-11T00:21:26.311Z,45.67
2023-02-11T00:23:57.321Z,45.47
2023-02-11T00:26:31.744Z,50.28
2023-02-11T00:29:01.625Z,45.58
2023-02-11T00:31:34.057Z,39.58
2023-02-11T00:34:08.673Z,45.25
2023-02-11T00:36:38.469Z,48.60
2023-02-11T00:39:25.328Z,46.95
2023-02-11T00:42:01.565Z,44.80
2023-02-11T00:44:30.828Z,47.25
2023-02-11T00:47:05.315Z,43.92
2023-02-11T00:49:34.474Z,45.50
2023-02-11T00:52:01.281Z,47.33
2023-02-11T00:54:30.392Z,43.70
2023-02-11T00:56:57.103Z,43.85
2023-02-11T00:59:27.652Z,42.25
2023-02-11T01:02:04.703Z,45.83
2023-02-11T01:04:34.250Z,42.50
2023-02-11T01:07:01.061Z,42.85
2023-02-11T01:09:27.854Z,42.47
2023-02-11T01:11:57.130Z,43.70
2023-02-11T01:14:23.928Z,36.50
2023-02-11T01:16:53.902Z,45.53
2023-02-11T01:19:21.370Z,48.15
2023-02-11T01:21:50.480Z,44.53
2023-02-11T01:24:19.506Z,42.88
2023-02-11T01:26:48.817Z,43.08
2023-02-11T01:29:17.948Z,46.65
2023-02-11T01:31:47.137Z,46.70
2023-02-11T01:34:14.660Z,47.17
2023-02-11T01:36:41.897Z,42.95
2023-02-11T01:39:09.007Z,43.95
2023-02-11T01:41:35.846Z,47.40
2023-02-11T01:44:33.464Z,42.40
2023-02-11T01:47:06.130Z,45.45
2023-02-11T01:49:36.876Z,47.40
2023-02-11T01:52:10.477Z,48.25
2023-02-11T01:55:00.445Z,45.20
2023-02-11T01:57:32.038Z,43.47
2023-02-11T02:00:17.310Z,45.92
2023-02-11T02:02:44.437Z,44.60
2023-02-11T02:05:40.335Z,54.45
2023-02-11T02:08:21.634Z,47.17
2023-02-11T02:10:56.347Z,47.67
2023-02-11T02:13:25.068Z,51.83
2023-02-11T02:15:59.919Z,45.33
2023-02-11T02:18:51.873Z,46.80
2023-02-11T02:21:55.670Z,47.13
2023-02-11T02:24:41.223Z,51.75
2023-02-11T02:27:36.449Z,45.00
2023-02-11T02:30:28.231Z,50.80
2023-02-11T02:33:07.899Z,46.63
2023-02-11T02:35:55.714Z,43.95
2023-02-11T02:38:31.936Z,48.05
2023-02-11T02:41:20.047Z,46.33
2023-02-11T02:43:53.009Z,48.78
2023-02-11T02:46:29.999Z,49.47
2023-02-11T02:49:00.022Z,45.20
2023-02-11T02:51:51.537Z,46.78
2023-02-11T02:54:21.389Z,43.75
2023-02-11T02:57:05.370Z,47.85
2023-02-11T02:59:52.807Z,54.22
2023-02-11T03:02:35.695Z,48.72
2023-02-11T03:05:17.524Z,42.72
2023-02-11T03:07:51.649Z,46.70
2023-02-11T03:10:27.918Z,43.78
2023-02-11T03:12:57.662Z,45.08
2023-02-11T03:15:28.571Z,46.30
2023-02-11T03:18:00.744Z,44.15
2023-02-11T03:23:02.596Z,46.55
2023-02-11T03:25:37.532Z,47.88
2023-02-11T03:28:25.183Z,45.88
2023-02-11T03:31:01.268Z,43.80
2023-02-11T03:33:45.976Z,43.10
2023-02-11T03:36:20.248Z,38.60
2023-02-11T03:38:52.993Z,45.17
2023-02-11T03:41:22.249Z,44.17
2023-02-11T03:43:56.524Z,45.40
2023-02-11T03:46:34.702Z,41.08
2023-02-11T03:49:15.800Z,43.42
2023-02-11T03:51:43.333Z,43.92
2023-02-11T03:54:17.172Z,46.75
2023-02-11T03:56:51.668Z,39.70
2023-02-11T03:59:18.657Z,41.53
2023-02-11T04:01:45.452Z,41.33
2023-02-11T04:04:12.249Z,41.33
2023-02-11T04:06:41.594Z,42.05
2023-02-11T04:09:10.832Z,40.30
2023-02-11T04:11:37.574Z,38.80
2023-02-11T04:14:06.782Z,39.17
2023-02-11T04:16:33.600Z,42.97
2023-02-11T04:19:02.746Z,40.40
2023-02-11T04:21:31.990Z,40.53
2023-02-11T04:24:06.782Z,40.97
2023-02-11T04:26:36.599Z,40.72
2023-02-11T04:29:03.551Z,42.45
2023-02-11T04:31:35.115Z,42.95
2023-02-11T04:34:05.930Z,43.63
2023-02-11T04:36:32.816Z,41.10
2023-02-11T04:39:02.173Z,43.28
2023-02-11T04:44:00.387Z,44.97
2023-02-11T04:46:30.109Z,37.08
2023-02-11T04:49:05.051Z,39.97
2023-02-11T04:51:34.423Z,41.67
2023-02-11T04:54:01.224Z,46.47
2023-02-11T04:56:28.065Z,53.78
2023-02-11T04:58:57.006Z,51.63
2023-02-11T05:01:26.488Z,51.58
2023-02-11T05:03:53.432Z,50.97
2023-02-11T05:06:22.675Z,53.45
2023-02-11T05:08:54.542Z,55.83
2023-02-11T05:11:26.812Z,59.28
2023-02-11T05:14:01.585Z,59.75
2023-02-11T05:16:28.576Z,60.75
2023-02-11T05:19:03.236Z,56.60
2023-02-11T05:21:32.564Z,58.97
2023-02-11T05:24:04.384Z,61.92
2023-02-11T05:26:36.564Z,59.58
2023-02-11T05:29:08.477Z,60.88
2023-02-11T05:31:40.494Z,60.10
2023-02-11T05:34:13.118Z,59.83
2023-02-11T05:36:44.976Z,60.55
2023-02-11T05:39:12.273Z,62.65
2023-02-11T05:41:39.107Z,62.40
2023-02-11T05:44:08.221Z,61.75
2023-02-11T05:46:35.038Z,58.28
2023-02-11T05:49:08.969Z,61.08
2023-02-11T05:51:38.150Z,59.08
2023-02-11T05:54:07.998Z,61.47
2023-02-11T05:56:38.059Z,61.25
2023-02-11T05:59:12.385Z,64.53
2023-02-11T06:01:39.267Z,59.03
2023-02-11T06:04:08.981Z,60.28
2023-02-11T06:06:45.421Z,60.05
2023-02-11T06:09:12.225Z,66.35
2023-02-11T06:11:48.412Z,58.08
2023-02-11T06:14:20.085Z,60.15
2023-02-11T06:16:52.373Z,61.05
2023-02-11T06:19:21.598Z,56.45
2023-02-11T06:21:48.464Z,61.53
2023-02-11T06:24:28.696Z,58.38
2023-02-11T06:27:05.290Z,67.55
2023-02-11T06:29:35.467Z,61.42
2023-02-11T06:32:08.618Z,59.80
2023-02-11T06:34:38.829Z,61.95
2023-02-11T06:37:08.388Z,68.57
2023-02-11T06:39:35.312Z,70.75
2023-02-11T06:42:06.985Z,59.13
2023-02-11T06:44:34.682Z,55.60
2023-02-11T06:47:04.273Z,55.38
2023-02-11T06:49:34.034Z,62.45
2023-02-11T06:52:00.987Z,62.60
2023-02-11T06:54:32.116Z,62.67
2023-02-11T06:56:58.845Z,56.60
2023-02-11T06:59:28.270Z,58.53
2023-02-11T07:01:58.186Z,64.32
2023-02-11T07:04:29.662Z,62.83
2023-02-11T07:06:59.501Z,59.78
2023-02-11T07:09:33.487Z,56.70
2023-02-11T07:12:02.574Z,61.05
2023-02-11T07:14:34.151Z,62.88
2023-02-11T07:17:04.128Z,61.22
2023-02-11T07:19:33.288Z,66.13
2023-02-11T07:22:02.185Z,69.20
2023-02-11T07:24:30.216Z,62.55
2023-02-11T07:26:57.111Z,69.22
2023-02-11T07:29:34.652Z,67.50
2023-02-11T07:32:03.827Z,67.00
2023-02-11T07:34:35.804Z,62.60
2023-02-11T07:37:07.089Z,65.43
2023-02-11T07:39:34.226Z,67.78
2023-02-11T07:42:00.985Z,67.25
2023-02-11T07:44:27.811Z,68.20
2023-02-11T07:46:58.609Z,66.72
2023-02-11T07:49:27.854Z,67.45
2023-02-11T07:51:59.731Z,69.93
2023-02-11T07:54:28.771Z,68.57
2023-02-11T07:56:55.580Z,62.47
2023-02-11T07:59:25.161Z,69.30
2023-02-11T08:01:55.022Z,63.25
2023-02-11T08:04:23.174Z,59.20
2023-02-11T08:06:52.920Z,64.18
2023-02-11T08:09:24.864Z,82.72
2023-02-11T08:11:56.645Z,66.40
2023-02-11T08:14:28.684Z,63.55
2023-02-11T08:17:01.082Z,62.22
2023-02-11T08:19:28.159Z,67.45
2023-02-11T08:21:58.571Z,62.28
2023-02-11T08:24:28.337Z,61.63
2023-02-11T08:26:56.737Z,62.22
2023-02-11T08:29:30.912Z,54.47
2023-02-11T08:31:57.984Z,57.33
2023-02-11T08:34:26.920Z,47.08
2023-02-11T08:36:54.221Z,45.67
2023-02-11T08:39:24.518Z,39.03
2023-02-11T08:41:54.104Z,40.72
2023-02-11T08:46:48.362Z,35.85
2023-02-11T08:49:15.692Z,36.58
2023-02-11T08:51:45.897Z,40.47
2023-02-11T08:54:14.173Z,34.25
2023-02-11T08:56:47.608Z,36.80
2023-02-11T08:59:16.081Z,35.10
2023-02-11T09:01:47.847Z,33.50
2023-02-11T09:04:14.996Z,36.50
2023-02-11T09:06:42.184Z,36.95
2023-02-11T09:09:13.529Z,33.17
2023-02-11T09:11:41.540Z,36.20
2023-02-11T09:14:20.544Z,36.53
2023-02-11T09:16:48.324Z,37.83
2023-02-11T09:19:15.655Z,34.85
2023-02-11T09:21:45.476Z,32.72
2023-02-11T09:24:12.335Z,34.85
2023-02-11T09:26:43.395Z,36.65
2023-02-11T09:29:10.446Z,34.08
2023-02-11T09:31:37.591Z,37.33
2023-02-11T09:34:09.846Z,37.33
2023-02-11T09:36:43.842Z,32.78
2023-02-11T09:39:18.273Z,37.38
2023-02-11T09:41:48.104Z,35.55
2023-02-11T09:44:23.688Z,34.85
2023-02-11T09:47:01.196Z,39.50
2023-02-11T09:49:39.418Z,40.17
2023-02-11T09:52:22.655Z,39.15
2023-02-11T09:54:58.460Z,37.78
2023-02-11T09:57:36.836Z,36.70
2023-02-11T10:00:20.043Z,35.58
2023-02-11T10:02:46.749Z,35.22
2023-02-11T10:05:17.804Z,36.80
2023-02-11T10:07:44.757Z,38.63
2023-02-11T10:10:30.026Z,36.25
2023-02-11T10:13:21.897Z,37.53
2023-02-11T10:16:16.183Z,38.33
2023-02-11T10:19:03.129Z,36.95
2023-02-11T10:21:34.403Z,35.38
2023-02-11T10:24:05.745Z,41.83
2023-02-11T10:26:36.990Z,40.25
2023-02-11T10:29:25.262Z,36.75
2023-02-11T10:31:52.383Z,38.58
2023-02-11T10:34:19.369Z,37.78
2023-02-11T10:39:16.984Z,40.55
2023-02-11T10:41:48.582Z,38.75
2023-02-11T10:44:31.017Z,36.53
2023-02-11T10:47:00.108Z,38.67
2023-02-11T10:49:40.465Z,35.05
2023-02-11T10:52:30.707Z,38.03
2023-02-11T10:55:29.135Z,40.95
2023-02-11T10:58:33.499Z,33.75
2023-02-11T11:03:43.265Z,33.47
2023-02-11T11:06:10.191Z,33.83
2023-02-11T11:08:52.213Z,33.25
2023-02-11T11:11:29.619Z,36.97
2023-02-11T11:14:03.360Z,33.97
2023-02-11T11:16:37.058Z,35.78
2023-02-11T11:19:09.743Z,35.05
2023-02-11T11:21:42.522Z,34.10
2023-02-11T11:24:22.212Z,34.22
2023-02-11T11:26:56.993Z,38.13
2023-02-11T11:29:46.007Z,36.70
2023-02-11T11:32:18.911Z,39.53
2023-02-11T11:35:17.854Z,33.35
2023-02-11T11:37:47.103Z,38.33
2023-02-11T11:40:16.741Z,32.97
2023-02-11T11:42:47.258Z,34.80
2023-02-11T11:45:19.939Z,36.63
2023-02-11T11:47:53.316Z,37.97
2023-02-11T11:50:35.597Z,35.63
2023-02-11T11:53:26.508Z,30.52
2023-02-11T11:56:00.155Z,29.02
2023-02-11T11:58:32.852Z,32.85
2023-02-11T12:01:02.308Z,33.55
2023-02-11T12:06:41.307Z,32.20
2023-02-11T12:09:32.463Z,34.42
2023-02-11T12:12:24.092Z,34.97
2023-02-11T12:15:12.174Z,31.95
2023-02-11T12:17:38.940Z,28.45
2023-02-11T12:20:18.338Z,33.75
2023-02-11T12:25:38.876Z,31.15
2023-02-11T12:28:27.555Z,27.88
2023-02-11T12:31:12.078Z,27.05
2023-02-11T12:33:59.965Z,32.22
2023-02-11T12:37:07.995Z,27.92
2023-02-11T12:40:00.589Z,28.73
2023-02-11T12:42:52.036Z,29.00
2023-02-11T12:45:40.001Z,28.13
2023-02-11T12:48:35.629Z,25.70
2023-02-11T12:51:02.605Z,24.65
2023-02-11T12:53:32.825Z,25.05
2023-02-11T12:56:22.994Z,23.55
2023-02-11T12:58:53.136Z,26.90
2023-02-11T13:01:41.014Z,26.05
2023-02-11T13:04:22.072Z,25.00
2023-02-11T13:06:52.474Z,22.13
2023-02-11T13:09:33.150Z,22.95
2023-02-11T13:12:23.031Z,23.42
2023-02-11T13:14:52.944Z,22.20
2023-02-11T13:17:50.247Z,19.33
2023-02-11T13:20:25.903Z,21.15
2023-02-11T13:23:24.274Z,21.70
2023-02-11T13:25:57.479Z,21.60
2023-02-11T13:28:27.280Z,21.95
2023-02-11T13:31:03.235Z,21.25
2023-02-11T13:33:43.155Z,20.92
2023-02-11T13:36:09.949Z,22.85
2023-02-11T13:38:40.066Z,22.08
2023-02-11T13:41:35.804Z,21.73
2023-02-11T13:44:08.597Z,26.33
2023-02-11T13:46:54.928Z,23.08
2023-02-11T13:49:25.912Z,23.30
2023-02-11T13:52:00.484Z,22.35
2023-02-11T13:54:31.889Z,23.90
2023-02-11T13:57:19.677Z,21.55
2023-02-11T13:59:58.168Z,24.70
2023-02-11T14:02:49.497Z,21.33
2023-02-11T14:05:50.518Z,25.33
2023-02-11T14:08:45.662Z,23.33
2023-02-11T14:11:25.306Z,18.95
2023-02-11T14:13:55.018Z,20.02
2023-02-11T14:16:37.302Z,24.10
2023-02-11T14:19:06.787Z,20.65
2023-02-11T14:21:36.973Z,23.83
2023-02-11T14:24:07.424Z,30.38
2023-02-11T14:26:56.958Z,22.38
2023-02-11T14:29:34.210Z,21.83
2023-02-11T14:32:23.661Z,22.73
2023-02-11T14:35:25.954Z,27.80
2023-02-11T14:38:14.029Z,22.17
2023-02-11T14:40:42.403Z,32.17
2023-02-11T14:43:36.384Z,26.05
2023-02-11T14:46:03.940Z,23.83
2023-02-11T14:48:40.726Z,24.00
2023-02-11T14:51:10.186Z,24.08
2023-02-11T14:56:04.091Z,23.10
2023-02-11T14:58:32.689Z,24.17
2023-02-11T15:01:23.121Z,23.33
2023-02-11T15:03:50.166Z,22.45
2023-02-11T15:06:45.037Z,25.98
2023-02-11T15:09:19.824Z,24.50
2023-02-11T15:11:49.792Z,27.08
2023-02-11T15:14:29.468Z,23.05
2023-02-11T15:17:01.701Z,25.20
2023-02-11T15:19:34.237Z,23.55
2023-02-11T15:22:08.532Z,25.40
2023-02-11T15:24:35.736Z,23.60
2023-02-11T15:27:08.650Z,24.13
2023-02-11T15:29:40.090Z,28.25
2023-02-11T15:32:10.044Z,26.08
2023-02-11T15:34:37.266Z,25.80
2023-02-11T15:37:09.335Z,24.98
2023-02-11T15:39:44.174Z,29.23
2023-02-11T15:42:24.299Z,24.77
2023-02-11T15:45:16.541Z,24.67
2023-02-11T15:47:54.314Z,28.10
2023-02-11T15:50:21.224Z,26.70
2023-02-11T15:52:50.485Z,27.58
2023-02-11T15:55:18.025Z,25.40
2023-02-11T15:57:54.061Z,25.40
2023-02-11T16:00:24.801Z,23.73
2023-02-11T16:02:52.068Z,25.88
2023-02-11T16:05:31.864Z,26.52
2023-02-11T16:08:24.570Z,28.42
2023-02-11T16:11:03.520Z,30.23
2023-02-11T16:13:38.436Z,27.20
2023-02-11T16:16:19.938Z,29.55
2023-02-11T16:19:04.380Z,28.30
2023-02-11T16:21:39.309Z,29.17
2023-02-11T16:24:15.850Z,30.33
2023-02-11T16:26:48.039Z,31.05
2023-02-11T16:29:24.775Z,29.92
2023-02-11T16:31:53.564Z,28.60
2023-02-11T16:34:24.556Z,27.00
2023-02-11T16:36:52.227Z,29.33
2023-02-11T16:39:22.684Z,26.55
2023-02-11T16:41:56.240Z,31.40
2023-02-11T16:44:25.571Z,25.67
2023-02-11T16:46:56.075Z,28.00
2023-02-11T16:49:25.840Z,30.45
2023-02-11T16:52:01.245Z,31.05
2023-02-11T16:54:29.257Z,27.98
2023-02-11T16:57:02.138Z,28.92
2023-02-11T16:59:28.971Z,29.08
2023-02-11T17:01:55.773Z,28.00
2023-02-11T17:04:27.814Z,32.53
2023-02-11T17:06:58.690Z,27.50
2023-02-11T17:09:30.484Z,24.67
2023-02-11T17:11:57.555Z,27.90
2023-02-11T17:14:26.592Z,27.75
2023-02-11T17:16:59.145Z,33.17
2023-02-11T17:19:30.794Z,29.10
2023-02-11T17:22:00.492Z,29.83
2023-02-11T17:24:29.565Z,29.13
2023-02-11T17:26:58.622Z,27.38
2023-02-11T17:29:27.908Z,26.33
2023-02-11T17:31:54.778Z,31.00
2023-02-11T17:34:22.708Z,30.58
2023-02-11T17:36:50.153Z,28.83
2023-02-11T17:39:22.065Z,31.85
2023-02-11T17:41:53.597Z,30.10
2023-02-11T17:44:25.017Z,31.73
2023-02-11T17:46:54.140Z,28.67
2023-02-11T17:49:21.032Z,29.33
2023-02-11T17:51:52.652Z,30.15
2023-02-11T17:54:19.830Z,30.67
2023-02-11T17:59:20.480Z,30.20
2023-02-11T18:01:49.464Z,31.70
2023-02-11T18:04:17.994Z,29.63
2023-02-11T18:06:45.040Z,32.33
2023-02-11T18:09:14.780Z,30.55
2023-02-11T18:11:44.217Z,32.45
2023-02-11T18:16:39.469Z,28.63
2023-02-11T18:19:08.898Z,35.50
2023-02-11T18:21:35.996Z,34.28
2023-02-11T18:26:34.660Z,30.85
2023-02-11T18:29:01.780Z,31.27
2023-02-11T18:31:36.116Z,34.72
2023-02-11T18:34:04.686Z,28.70
2023-02-11T18:36:31.602Z,26.47
2023-02-11T18:39:00.127Z,30.80
2023-02-11T18:41:29.860Z,29.23
2023-02-11T18:43:58.836Z,27.95
2023-02-11T18:46:26.116Z,29.02
2023-02-11T18:48:56.265Z,27.80
2023-02-11T18:51:25.999Z,27.08
2023-02-11T18:53:53.095Z,28.73
2023-02-11T18:56:24.094Z,32.15
2023-02-11T18:58:56.669Z,26.85
2023-02-11T19:01:27.361Z,27.60
2023-02-11T19:03:58.524Z,29.77
2023-02-11T19:06:27.382Z,27.45
2023-02-11T19:09:00.124Z,30.25
2023-02-11T19:11:47.105Z,31.70
2023-02-11T19:14:15.438Z,31.73
2023-02-11T19:16:43.968Z,30.45
2023-02-11T19:19:14.032Z,27.13
2023-02-11T19:21:43.748Z,26.63
2023-02-11T19:24:11.381Z,29.52
2023-02-11T19:26:40.423Z,26.38
2023-02-11T19:29:09.850Z,27.45
2023-02-11T19:34:07.487Z,36.35
2023-02-11T19:36:36.880Z,32.75
2023-02-11T19:39:05.478Z,29.83
2023-02-11T19:41:34.069Z,29.43
2023-02-11T19:44:01.575Z,33.63
2023-02-11T19:46:33.644Z,29.98
2023-02-11T19:49:03.726Z,30.08
2023-02-11T19:51:31.144Z,29.98
2023-02-11T19:54:00.848Z,31.15
2023-02-11T19:56:29.924Z,33.42
2023-02-11T19:58:57.124Z,31.55
2023-02-11T20:01:28.739Z,33.22
2023-02-11T20:03:58.015Z,32.47
2023-02-11T20:06:28.572Z,29.63
2023-02-11T20:08:58.825Z,32.03
2023-02-11T20:11:28.216Z,29.27
2023-02-11T20:13:55.347Z,33.53
2023-02-11T20:16:44.688Z,31.67
2023-02-11T20:19:20.461Z,30.20
2023-02-11T20:21:51.062Z,32.90
2023-02-11T20:24:19.210Z,29.45
2023-02-11T20:26:49.408Z,31.45
2023-02-11T20:29:17.462Z,30.08
2023-02-11T20:31:44.461Z,31.05
2023-02-11T20:34:12.287Z,24.42
2023-02-11T20:36:51.838Z,27.45
2023-02-11T20:39:22.360Z,30.80
2023-02-11T20:41:50.048Z,28.10
2023-02-11T20:44:21.844Z,25.38
2023-02-11T20:46:49.313Z,23.90
2023-02-11T20:49:22.061Z,25.15
2023-02-11T20:51:53.329Z,25.17
2023-02-11T20:54:21.537Z,31.42
2023-02-11T20:56:51.223Z,27.65
2023-02-11T20:59:19.260Z,29.17
2023-02-11T21:01:48.711Z,27.48
2023-02-11T21:06:48.199Z,27.05
2023-02-11T21:09:20.112Z,25.83
2023-02-11T21:11:47.604Z,25.30
2023-02-11T21:14:15.474Z,25.38
2023-02-11T21:16:44.365Z,21.25
2023-02-11T21:19:11.361Z,22.92
2023-02-11T21:21:39.093Z,24.60
2023-02-11T21:24:07.728Z,23.83
2023-02-11T21:26:35.720Z,23.17
2023-02-11T21:29:08.060Z,23.98
2023-02-11T21:31:36.173Z,23.48
2023-02-11T21:34:03.830Z,22.73
2023-02-11T21:36:30.836Z,26.90
2023-02-11T21:39:01.748Z,22.95
2023-02-11T21:41:28.851Z,23.25
2023-02-11T21:43:57.798Z,24.10
2023-02-11T21:46:27.401Z,24.08
2023-02-11T21:49:00.458Z,22.40
2023-02-11T21:51:27.612Z,23.05
2023-02-11T21:54:01.156Z,23.33
2023-02-11T21:56:32.515Z,26.00
2023-02-11T21:58:59.875Z,21.38
2023-02-11T22:01:29.308Z,24.05
2023-02-11T22:03:56.785Z,19.13
2023-02-11T22:06:26.373Z,21.35
2023-02-11T22:08:54.356Z,22.17
2023-02-11T22:11:21.304Z,21.95
2023-02-11T22:13:48.144Z,21.60
2023-02-11T22:16:19.678Z,20.30
2023-02-11T22:18:46.605Z,19.73
2023-02-11T22:21:19.696Z,22.23
2023-02-11T22:23:49.529Z,21.38
2023-02-11T22:26:19.093Z,21.45
2023-02-11T22:28:49.999Z,25.08
2023-02-11T22:31:23.059Z,19.85
2023-02-11T22:33:52.571Z,20.70
2023-02-11T22:38:55.754Z,24.27
2023-02-11T22:41:25.783Z,24.20
2023-02-11T22:43:54.701Z,20.80
2023-02-11T22:46:21.880Z,20.15
2023-02-11T22:48:49.118Z,20.25
2023-02-11T22:51:19.523Z,22.63
2023-02-11T22:53:59.805Z,20.02
2023-02-11T22:56:27.872Z,19.50
2023-02-11T22:59:00.377Z,21.67
2023-02-11T23:01:33.048Z,20.75
2023-02-11T23:04:04.540Z,19.55
2023-02-11T23:06:31.617Z,21.13
2023-02-11T23:08:58.441Z,23.65
2023-02-11T23:11:28.142Z,20.77
2023-02-11T23:13:55.413Z,20.23
2023-02-11T23:16:32.987Z,19.95
2023-02-11T23:19:03.532Z,19.00
2023-02-11T23:21:36.047Z,19.98
2023-02-11T23:24:08.953Z,20.08
2023-02-11T23:26:43.911Z,20.38
2023-02-11T23:29:14.007Z,24.15
2023-02-11T23:31:44.134Z,22.63
2023-02-11T23:34:11.773Z,19.67
2023-02-11T23:36:39.042Z,21.30
2023-02-11T23:41:42.512Z,18.05
2023-02-11T23:44:12.127Z,18.48
2023-02-11T23:46:42.113Z,20.40
2023-02-11T23:49:08.997Z,18.85
2023-02-11T23:51:35.765Z,19.83
2023-02-11T23:54:03.329Z,22.30
2023-02-11T23:56:30.623Z,21.85
2023-02-11T23:58:59.392Z,22.45
